Huvudsida
METAR-TAF:

METAR-TAF

Flygplatser :

Homer, Alaska, USA

latitud: 59-39N, longitud: 151-29W, höjd: 26 m

Aktuellt väderrapport

Denna rapport gjordes för 44 minuter sedan, klockan 20:53 UTC
Stilla vind
Temperatur -11°C
Fuktighet 56%
Tryck 998 hPa
Sikt: 16.1 km
Klar himmel

METAR: PAHO 192053Z 00000KT 10SM CLR M11/M18 A2946 RMK AO2 SLP978 T11061183 51002

Tid: 12:37 (21:37 UTC)

Väderprognos

Denna rapport gjordes för 3 timmar och 55 minuter sedan, klockan 17:42 UTC
Prognos gäller från 19 kl. 18 UTC till 20 kl. 18 UTC
Vind 6 kt från nordost
Sikt: 10 km
Klar himmel
Från 20 kl. 1200 UTC
Vind 10 kt från nordost
Sikt: 10 km
Mulet på en höjd av 5000 ft
skurar i närheten

TAF: PAHO 191742Z 1918/2018 04006KT P6SM SKC FM201200 04010KT P6SM VCSH OVC050

Aktuella väderrapporter och prognoser från 4000 flygplatser (METAR- och TAF-rapporter).

De tillgängliga stationerna syns som gula och röda prickar på kartan.

För musen över prickarna för att se namnen på stationerna.

Klicka sedan för att få väderrapporter och prognoser.

För att ändra kartan: Klicka på de gröna knapparna med ett svart kors på för att zooma in; den gröna knappen med ett streck på för att zooma ut; eller på de gröna pilarna för angränsande kartor.


METAR-TAF: